Time;durP1;ratioP1;P1;durP2;ratioP2;P2;SDS_P1;SDS_P2;PMS_P1;PMS_P2;Temp;Humidity;BMP_temperature;BMP_pressure;BME280_temperature;BME280_humidity;BME280_pressure;Samples;Min_cycle;Max_cycle;Signal;HPM_P1;HPM_P2
2022/09/28 00:01:27;;;;;;;;;;;18.60;99.90;;;;;;5113872;28;19920;-69
2022/09/28 00:03:58;;;;;;;;;;;18.60;99.90;;;;;;5095952;28;19907;-69
2022/09/28 00:06:26;;;;;;;;;;;18.40;99.90;;;;;;5114328;28;19908;-70
2022/09/28 00:08:52;;;;;;;;;;;18.40;99.90;;;;;;5114529;28;19908;-70
2022/09/28 00:11:20;;;;;;;;;;;18.40;99.90;;;;;;5114066;28;20007;-69
2022/09/28 00:13:51;;;;;;;;;;;18.50;99.90;;;;;;5114253;28;19908;-72
2022/09/28 00:16:20;;;;;;;;;;;18.60;99.90;;;;;;5114286;28;19921;-71
2022/09/28 00:18:49;;;;;;;;;;;18.60;99.90;;;;;;5113680;28;19956;-71
2022/09/28 00:21:17;;;;;;;;;;;18.70;99.90;;;;;;5113830;28;19919;-69
2022/09/28 00:26:30;;;;;;;;;;;18.80;99.90;;;;;;5114262;28;20312;-70
2022/09/28 00:28:58;;;;;;;;;;;19.00;99.90;;;;;;5113949;28;19912;-69
2022/09/28 00:31:27;;;;;;;;;;;19.10;99.90;;;;;;5113743;28;19914;-72
2022/09/28 00:33:59;;;;;;;;;;;19.40;99.90;;;;;;5113630;28;19908;-72
2022/09/28 00:36:27;;;;;;;;;;;19.60;99.90;;;;;;5109046;28;19931;-72
2022/09/28 00:38:57;;;;;;;;;;;19.80;99.90;;;;;;5101470;28;19918;-72
2022/09/28 00:41:24;;;;;;;;;;;20.00;99.90;;;;;;5103379;28;20359;-70
2022/09/28 00:43:51;;;;;;;;;;;20.00;99.90;;;;;;5110108;28;19907;-70
2022/09/28 00:46:20;;;;;;;;;;;20.00;99.90;;;;;;5107439;28;19908;-71
2022/09/28 00:48:54;;;;;;;;;;;20.10;99.90;;;;;;5107452;28;19984;-72
2022/09/28 00:51:21;;;;;;;;;;;20.20;99.90;;;;;;5103611;28;19911;-71
2022/09/28 00:53:48;;;;;;;;;;;20.40;99.90;;;;;;5111126;28;19912;-72
2022/09/28 00:56:17;;;;;;;;;;;20.70;99.90;;;;;;5111729;28;20339;-71
2022/09/28 00:58:49;;;;;;;;;;;20.80;99.40;;;;;;5098208;28;19912;-73
2022/09/28 01:01:16;;;;;;;;;;;20.70;98.70;;;;;;5097934;28;20333;-72
2022/09/28 01:03:47;;;;;;;;;;;20.60;98.60;;;;;;5110554;28;19915;-73
2022/09/28 01:06:21;;;;;;;;;;;20.60;98.30;;;;;;5108390;28;20665;-74
2022/09/28 01:08:50;;;;;;;;;;;20.40;98.30;;;;;;5109043;28;19919;-73
2022/09/28 01:11:20;;;;;;;;;;;20.20;97.00;;;;;;5109572;28;19919;-73
2022/09/28 01:13:50;;;;;;;;;;;20.00;96.80;;;;;;5111830;28;19919;-72
2022/09/28 01:16:17;;;;;;;;;;;20.10;97.30;;;;;;5107501;28;19912;-72
2022/09/28 01:18:52;;;;;;;;;;;20.40;97.00;;;;;;5089585;28;20578;-72
2022/09/28 01:21:20;;;;;;;;;;;20.50;95.90;;;;;;5107552;28;19972;-72
2022/09/28 01:24:11;;;;;;;;;;;20.80;96.30;;;;;;5110980;28;19912;-71
2022/09/28 01:27:00;;;;;;;;;;;20.90;95.30;;;;;;5092494;28;19918;-72
2022/09/28 01:29:27;;;;;;;;;;;21.20;95.40;;;;;;5109502;28;19919;-71
2022/09/28 01:32:12;;;;;;;;;;;21.40;94.80;;;;;;5110435;28;19937;-71
2022/09/28 01:34:46;;;;;;;;;;;21.40;95.30;;;;;;5094957;28;19916;-74
2022/09/28 01:37:14;;;;;;;;;;;21.50;94.40;;;;;;5105025;28;19912;-75
2022/09/28 01:39:43;;;;;;;;;;;21.60;93.50;;;;;;5108365;28;19953;-71
2022/09/28 01:42:12;;;;;;;;;;;21.90;94.00;;;;;;5110876;28;19923;-73
2022/09/28 01:44:41;;;;;;;;;;;22.10;92.50;;;;;;5088067;28;19912;-73
2022/09/28 01:47:10;;;;;;;;;;;22.40;93.20;;;;;;5103259;28;19914;-71
2022/09/28 01:49:39;;;;;;;;;;;22.60;92.70;;;;;;5093304;28;19912;-72
2022/09/28 01:52:26;;;;;;;;;;;22.90;91.70;;;;;;5110790;28;19907;-72
2022/09/28 01:55:08;;;;;;;;;;;23.10;90.20;;;;;;5110458;28;19911;-73
2022/09/28 01:57:53;;;;;;;;;;;23.40;90.00;;;;;;5099017;28;19919;-71
2022/09/28 02:00:23;;;;;;;;;;;23.50;86.70;;;;;;5106995;28;19926;-72
2022/09/28 02:03:12;;;;;;;;;;;23.60;87.90;;;;;;5092453;28;20199;-71
2022/09/28 02:05:39;;;;;;;;;;;23.70;88.90;;;;;;5105556;28;20470;-70
2022/09/28 02:08:16;;;;;;;;;;;24.00;88.60;;;;;;5092176;28;19916;-69
2022/09/28 02:10:49;;;;;;;;;;;24.00;86.40;;;;;;5090810;28;19923;-72
2022/09/28 02:13:29;;;;;;;;;;;23.90;87.40;;;;;;5103593;28;19930;-72
2022/09/28 02:16:15;;;;;;;;;;;23.80;86.90;;;;;;5114314;28;19922;-71
2022/09/28 02:18:42;;;;;;;;;;;23.60;90.70;;;;;;5105995;28;19915;-73
2022/09/28 02:21:12;;;;;;;;;;;23.30;92.50;;;;;;5110054;28;19912;-73
2022/09/28 02:23:41;;;;;;;;;;;23.20;93.50;;;;;;5110178;28;19908;-72
2022/09/28 02:26:09;;;;;;;;;;;23.30;93.40;;;;;;5102096;28;19912;-72
2022/09/28 02:28:36;;;;;;;;;;;23.70;93.80;;;;;;5093372;28;20007;-73
2022/09/28 02:31:03;;;;;;;;;;;23.70;93.40;;;;;;5104629;28;19916;-72
2022/09/28 02:33:35;;;;;;;;;;;23.50;94.10;;;;;;5090441;28;20291;-72
2022/09/28 02:36:02;;;;;;;;;;;23.60;94.20;;;;;;5091537;28;20280;-75
2022/09/28 02:38:30;;;;;;;;;;;24.10;94.00;;;;;;5110608;28;19914;-74
2022/09/28 02:41:03;;;;;;;;;;;24.30;92.90;;;;;;5110937;28;19916;-74
2022/09/28 02:43:38;;;;;;;;;;;24.10;92.50;;;;;;5110759;28;20024;-72
2022/09/28 02:46:08;;;;;;;;;;;23.60;92.70;;;;;;5106441;28;20280;-73
2022/09/28 02:48:34;;;;;;;;;;;23.00;93.10;;;;;;5096690;28;19912;-73
2022/09/28 02:51:13;;;;;;;;;;;22.60;93.90;;;;;;5106276;28;19908;-73
2022/09/28 02:53:49;;;;;;;;;;;22.70;94.10;;;;;;5107869;28;19956;-71
2022/09/28 02:56:18;;;;;;;;;;;23.60;93.40;;;;;;5104596;28;19912;-71
2022/09/28 02:58:46;;;;;;;;;;;24.80;92.20;;;;;;5109485;28;20367;-73
2022/09/28 03:01:25;;;;;;;;;;;25.80;91.10;;;;;;5083540;28;19963;-73
2022/09/28 03:04:04;;;;;;;;;;;26.50;88.80;;;;;;5110428;28;20030;-73
2022/09/28 03:06:31;;;;;;;;;;;27.10;86.90;;;;;;5112103;28;19908;-74
2022/09/28 03:09:02;;;;;;;;;;;27.60;84.90;;;;;;5110174;28;20276;-74
2022/09/28 03:11:42;;;;;;;;;;;28.00;84.60;;;;;;5112964;28;19959;-73
2022/09/28 03:14:10;;;;;;;;;;;28.40;82.60;;;;;;5095419;28;20264;-72
2022/09/28 03:16:36;;;;;;;;;;;28.60;81.20;;;;;;5105026;28;19909;-72
2022/09/28 03:19:03;;;;;;;;;;;28.80;80.80;;;;;;5094486;28;19912;-72
2022/09/28 03:21:30;;;;;;;;;;;29.20;80.30;;;;;;5102460;28;19916;-72
2022/09/28 03:23:56;;;;;;;;;;;29.50;78.70;;;;;;5094964;28;19919;-71
2022/09/28 03:26:23;;;;;;;;;;;29.70;78.00;;;;;;5102513;28;19908;-73
2022/09/28 03:28:50;;;;;;;;;;;29.60;79.90;;;;;;5110935;28;19915;-72
2022/09/28 03:31:16;;;;;;;;;;;29.50;80.40;;;;;;5113634;28;19988;-75
2022/09/28 03:33:43;;;;;;;;;;;29.20;81.00;;;;;;5113071;28;19933;-72
2022/09/28 03:36:09;;;;;;;;;;;29.40;81.70;;;;;;5102024;28;19969;-74
2022/09/28 03:38:36;;;;;;;;;;;29.30;81.60;;;;;;5113332;28;19998;-75
2022/09/28 03:41:03;;;;;;;;;;;29.20;82.20;;;;;;5112323;28;20344;-72
2022/09/28 03:43:30;;;;;;;;;;;29.60;81.30;;;;;;5095250;28;19960;-75
2022/09/28 03:45:58;;;;;;;;;;;29.80;79.20;;;;;;5106713;28;19999;-75
2022/09/28 03:48:25;;;;;;;;;;;29.80;78.10;;;;;;5106977;28;19927;-74
2022/09/28 03:50:53;;;;;;;;;;;30.00;79.40;;;;;;5112851;28;19908;-72
2022/09/28 03:53:19;;;;;;;;;;;29.90;78.00;;;;;;5113265;28;20368;-72
2022/09/28 03:55:46;;;;;;;;;;;29.90;76.50;;;;;;5113266;28;20045;-73
2022/09/28 03:58:13;;;;;;;;;;;29.80;77.10;;;;;;5093604;28;19912;-72
2022/09/28 04:00:40;;;;;;;;;;;30.10;77.40;;;;;;5093152;28;20327;-72
2022/09/28 04:03:07;;;;;;;;;;;30.10;76.90;;;;;;5092834;28;20424;-71
2022/09/28 04:05:34;;;;;;;;;;;30.20;76.60;;;;;;5094115;28;19913;-72
2022/09/28 04:08:00;;;;;;;;;;;29.90;75.40;;;;;;5096297;28;19916;-72
2022/09/28 04:10:27;;;;;;;;;;;29.10;77.50;;;;;;5112605;28;20442;-71
2022/09/28 04:12:57;;;;;;;;;;;28.10;79.70;;;;;;5111708;28;19914;-73
2022/09/28 04:15:24;;;;;;;;;;;27.10;81.00;;;;;;5108623;28;20287;-69
2022/09/28 04:17:51;;;;;;;;;;;26.10;83.80;;;;;;5105633;28;19908;-71
2022/09/28 04:20:18;;;;;;;;;;;25.30;86.40;;;;;;5092215;28;19908;-73
2022/09/28 04:22:45;;;;;;;;;;;24.70;87.90;;;;;;5102700;28;20363;-72
2022/09/28 04:25:11;;;;;;;;;;;24.10;89.00;;;;;;5109400;28;19915;-75
2022/09/28 04:30:23;;;;;;;;;;;23.50;90.90;;;;;;5090573;28;20025;-73
2022/09/28 04:32:50;;;;;;;;;;;23.20;90.70;;;;;;5109081;28;19957;-72
2022/09/28 04:35:16;;;;;;;;;;;22.80;91.80;;;;;;5106922;28;19951;-74
2022/09/28 04:37:43;;;;;;;;;;;23.60;92.10;;;;;;5091000;28;19912;-76
2022/09/28 04:40:10;;;;;;;;;;;24.80;90.50;;;;;;5110554;28;19919;-75
2022/09/28 04:42:36;;;;;;;;;;;25.90;89.80;;;;;;5112226;28;19931;-75
2022/09/28 04:45:03;;;;;;;;;;;27.00;86.10;;;;;;5110293;28;19911;-72
2022/09/28 04:47:30;;;;;;;;;;;27.80;83.70;;;;;;5105575;28;19908;-75
2022/09/28 04:49:56;;;;;;;;;;;28.30;82.30;;;;;;5104710;28;19915;-73
2022/09/28 04:52:23;;;;;;;;;;;28.80;81.30;;;;;;5110899;28;19911;-74
2022/09/28 04:54:50;;;;;;;;;;;28.90;80.80;;;;;;5107847;28;19924;-71
2022/09/28 04:57:16;;;;;;;;;;;28.90;81.20;;;;;;5098093;28;20229;-71
2022/09/28 04:59:43;;;;;;;;;;;28.40;83.20;;;;;;5097667;28;19920;-72
2022/09/28 05:02:12;;;;;;;;;;;27.50;85.50;;;;;;5104098;28;19924;-72
2022/09/28 05:04:39;;;;;;;;;;;26.60;87.90;;;;;;5111102;28;19950;-71
2022/09/28 05:07:06;;;;;;;;;;;25.70;89.90;;;;;;5108927;28;20236;-71
2022/09/28 05:09:33;;;;;;;;;;;24.90;90.60;;;;;;5093496;28;19915;-71
2022/09/28 05:11:59;;;;;;;;;;;24.20;92.10;;;;;;5104416;28;19908;-69
2022/09/28 05:14:26;;;;;;;;;;;23.70;92.60;;;;;;5112147;28;19908;-70
2022/09/28 05:16:52;;;;;;;;;;;23.50;93.10;;;;;;5103556;28;19974;-71
2022/09/28 05:19:19;;;;;;;;;;;23.20;93.50;;;;;;5073424;28;19930;-72
2022/09/28 05:21:47;;;;;;;;;;;22.90;94.30;;;;;;5110129;28;19923;-71
2022/09/28 05:24:14;;;;;;;;;;;22.60;95.10;;;;;;5111284;28;19955;-70
2022/09/28 05:26:40;;;;;;;;;;;22.30;95.50;;;;;;5110170;28;20039;-71
2022/09/28 05:29:07;;;;;;;;;;;22.10;95.90;;;;;;5111878;28;19964;-72
2022/09/28 05:31:34;;;;;;;;;;;21.90;96.30;;;;;;5111603;28;19908;-72
2022/09/28 05:34:00;;;;;;;;;;;21.70;96.70;;;;;;5111305;28;19915;-71
2022/09/28 05:36:29;;;;;;;;;;;21.40;96.70;;;;;;5105194;28;19911;-70
2022/09/28 05:38:55;;;;;;;;;;;21.20;97.90;;;;;;5109698;28;20356;-69
2022/09/28 05:41:22;;;;;;;;;;;21.50;98.10;;;;;;5111192;28;19926;-72
2022/09/28 05:43:51;;;;;;;;;;;21.60;97.80;;;;;;5108540;28;19912;-72
2022/09/28 05:46:18;;;;;;;;;;;21.40;98.10;;;;;;5110647;28;20011;-70
2022/09/28 05:48:45;;;;;;;;;;;21.30;98.70;;;;;;5111269;28;19908;-71
2022/09/28 05:51:12;;;;;;;;;;;21.30;99.30;;;;;;5111453;28;20355;-71
2022/09/28 05:53:38;;;;;;;;;;;21.20;99.20;;;;;;5105156;28;19908;-70
2022/09/28 05:56:05;;;;;;;;;;;21.30;99.20;;;;;;5101437;28;20272;-71
2022/09/28 05:58:32;;;;;;;;;;;21.30;99.10;;;;;;5111088;28;19968;-71
2022/09/28 06:00:58;;;;;;;;;;;21.90;99.50;;;;;;5110693;28;19966;-70
2022/09/28 06:03:25;;;;;;;;;;;22.60;97.60;;;;;;5091925;28;19934;-70
2022/09/28 06:05:52;;;;;;;;;;;22.80;96.90;;;;;;5103964;28;19908;-69
2022/09/28 06:08:19;;;;;;;;;;;22.70;96.80;;;;;;5091098;28;19962;-68
2022/09/28 06:10:46;;;;;;;;;;;22.50;97.10;;;;;;5072765;28;20343;-70
2022/09/28 06:13:12;;;;;;;;;;;22.40;97.70;;;;;;5090478;28;19935;-69
2022/09/28 06:15:41;;;;;;;;;;;22.60;97.40;;;;;;5091113;28;19909;-71
2022/09/28 06:18:13;;;;;;;;;;;23.10;96.00;;;;;;5091080;28;19908;-70
2022/09/28 06:20:40;;;;;;;;;;;23.70;95.30;;;;;;5090524;28;20399;-69
2022/09/28 06:23:08;;;;;;;;;;;24.60;94.20;;;;;;5072201;28;19951;-70
2022/09/28 06:25:34;;;;;;;;;;;24.90;92.90;;;;;;5090434;28;19908;-70
2022/09/28 06:28:03;;;;;;;;;;;24.50;93.30;;;;;;5091610;28;19915;-70
2022/09/28 06:30:30;;;;;;;;;;;23.90;93.60;;;;;;5090698;28;19942;-71
2022/09/28 06:32:58;;;;;;;;;;;23.40;94.70;;;;;;5094563;28;19919;-73
2022/09/28 06:35:25;;;;;;;;;;;22.80;95.30;;;;;;5106724;28;19912;-71
2022/09/28 06:37:52;;;;;;;;;;;22.30;96.10;;;;;;5090906;28;19963;-70
2022/09/28 06:40:20;;;;;;;;;;;21.90;96.80;;;;;;5095316;28;19908;-69
2022/09/28 06:43:13;;;;;;;;;;;21.50;97.50;;;;;;5095777;28;19962;-71
2022/09/28 06:45:40;;;;;;;;;;;21.30;98.10;;;;;;5110508;28;19912;-70
2022/09/28 06:48:09;;;;;;;;;;;20.90;98.20;;;;;;5114626;28;19958;-71
2022/09/28 06:50:37;;;;;;;;;;;20.80;98.70;;;;;;5115061;28;20257;-71
2022/09/28 06:53:08;;;;;;;;;;;20.60;99.50;;;;;;5115007;28;19951;-73
2022/09/28 06:55:37;;;;;;;;;;;20.40;99.70;;;;;;5090193;28;19911;-71
2022/09/28 06:58:05;;;;;;;;;;;20.20;99.90;;;;;;5099325;28;20311;-70
2022/09/28 07:00:34;;;;;;;;;;;20.10;99.90;;;;;;5115392;27;19979;-70
2022/09/28 07:03:20;;;;;;;;;;;20.00;99.90;;;;;;5113189;28;20003;-70
2022/09/28 07:05:52;;;;;;;;;;;19.70;99.90;;;;;;5102026;28;19912;-71
2022/09/28 07:08:20;;;;;;;;;;;19.60;99.90;;;;;;5098226;28;19920;-71
2022/09/28 07:10:48;;;;;;;;;;;19.60;99.90;;;;;;5113028;28;19912;-72
2022/09/28 07:13:16;;;;;;;;;;;19.50;99.90;;;;;;5111703;27;19926;-73
2022/09/28 07:15:43;;;;;;;;;;;19.40;99.90;;;;;;5097322;28;19995;-72
2022/09/28 07:18:10;;;;;;;;;;;19.40;99.90;;;;;;5094003;28;19915;-71
2022/09/28 07:20:37;;;;;;;;;;;19.40;99.90;;;;;;5092724;28;19934;-72
2022/09/28 07:23:06;;;;;;;;;;;19.30;99.90;;;;;;5110524;28;19912;-71
2022/09/28 07:25:36;;;;;;;;;;;19.30;99.90;;;;;;5100442;28;19958;-71
2022/09/28 07:28:03;;;;;;;;;;;19.30;99.90;;;;;;5097776;28;20433;-70
2022/09/28 07:30:32;;;;;;;;;;;19.20;99.90;;;;;;5107523;28;19911;-71
2022/09/28 07:32:59;;;;;;;;;;;19.20;99.90;;;;;;5113520;28;19907;-69
2022/09/28 07:35:27;;;;;;;;;;;19.20;99.90;;;;;;5095623;28;19919;-71
2022/09/28 07:37:59;;;;;;;;;;;19.20;99.90;;;;;;5097600;28;20090;-70
2022/09/28 07:43:12;;;;;;;;;;;19.10;99.90;;;;;;5096815;28;19972;-71
2022/09/28 07:45:39;;;;;;;;;;;19.10;99.90;;;;;;5090673;28;20276;-72
2022/09/28 07:48:05;;;;;;;;;;;19.10;99.90;;;;;;5097279;28;19915;-72
2022/09/28 07:50:32;;;;;;;;;;;19.00;99.90;;;;;;5092833;28;19915;-71
2022/09/28 07:52:59;;;;;;;;;;;19.00;99.90;;;;;;5096113;28;19981;-70
2022/09/28 07:55:26;;;;;;;;;;;18.90;99.90;;;;;;5092031;28;19916;-69
2022/09/28 07:57:58;;;;;;;;;;;18.90;99.90;;;;;;5104337;28;19951;-72
2022/09/28 08:00:25;;;;;;;;;;;18.80;99.90;;;;;;5091289;28;19955;-71
2022/09/28 08:02:52;;;;;;;;;;;18.80;99.90;;;;;;5103178;28;19951;-71
2022/09/28 08:05:19;;;;;;;;;;;18.80;99.90;;;;;;5109156;28;19943;-68
2022/09/28 08:07:45;;;;;;;;;;;18.70;99.90;;;;;;5100149;28;19934;-72
2022/09/28 08:10:12;;;;;;;;;;;18.80;99.90;;;;;;5104979;28;19912;-71
2022/09/28 08:12:40;;;;;;;;;;;18.80;99.90;;;;;;5091781;28;19915;-69
2022/09/28 08:15:09;;;;;;;;;;;18.80;99.90;;;;;;5111875;28;19914;-70
2022/09/28 08:17:35;;;;;;;;;;;18.80;99.90;;;;;;5112994;28;19908;-69
2022/09/28 08:22:47;;;;;;;;;;;18.80;99.90;;;;;;5108165;28;19938;-71
2022/09/28 08:25:14;;;;;;;;;;;18.70;99.90;;;;;;5113373;28;19908;-69
2022/09/28 08:27:41;;;;;;;;;;;18.70;99.90;;;;;;5097590;28;19909;-70
2022/09/28 08:30:07;;;;;;;;;;;18.70;99.90;;;;;;5099776;28;19911;-69
2022/09/28 08:32:34;;;;;;;;;;;18.80;99.90;;;;;;5112361;28;19911;-70
2022/09/28 08:35:01;;;;;;;;;;;18.70;99.90;;;;;;5100528;28;19912;-70
2022/09/28 08:37:27;;;;;;;;;;;18.60;99.90;;;;;;5106073;28;19908;-70
2022/09/28 08:39:54;;;;;;;;;;;18.60;99.90;;;;;;5107402;28;19919;-69
2022/09/28 08:42:21;;;;;;;;;;;18.60;99.90;;;;;;5103733;28;20375;-70
2022/09/28 08:44:50;;;;;;;;;;;18.50;99.90;;;;;;5113116;28;19967;-70
2022/09/28 08:50:05;;;;;;;;;;;18.40;99.90;;;;;;5099851;28;19923;-69
2022/09/28 08:52:38;;;;;;;;;;;18.40;99.90;;;;;;5112741;28;20267;-70
2022/09/28 08:55:16;;;;;;;;;;;18.30;99.90;;;;;;5113172;28;19916;-71
2022/09/28 08:57:50;;;;;;;;;;;18.30;99.90;;;;;;5097050;28;20283;-71
2022/09/28 09:00:20;;;;;;;;;;;18.20;99.90;;;;;;5100805;28;20372;-72
2022/09/28 09:02:47;;;;;;;;;;;18.20;99.90;;;;;;5111473;28;19915;-71
2022/09/28 09:05:17;;;;;;;;;;;18.20;99.90;;;;;;5112281;28;19912;-69
2022/09/28 09:07:56;;;;;;;;;;;18.10;99.90;;;;;;5095796;28;19915;-70
2022/09/28 09:10:38;;;;;;;;;;;18.10;99.90;;;;;;5101403;28;19919;-70
2022/09/28 09:13:11;;;;;;;;;;;18.10;99.90;;;;;;5112200;28;19957;-69
2022/09/28 09:15:45;;;;;;;;;;;18.00;99.90;;;;;;5112131;28;19915;-69
2022/09/28 09:18:21;;;;;;;;;;;17.90;99.90;;;;;;5092337;28;19934;-70
2022/09/28 09:20:58;;;;;;;;;;;17.90;99.90;;;;;;5073853;28;20318;-70
2022/09/28 09:23:43;;;;;;;;;;;17.80;99.90;;;;;;5092030;28;19912;-70
2022/09/28 09:26:09;;;;;;;;;;;17.80;99.90;;;;;;5091728;28;19919;-71
2022/09/28 09:28:39;;;;;;;;;;;17.80;99.90;;;;;;5091953;28;19915;-70
2022/09/28 09:31:25;;;;;;;;;;;17.80;99.90;;;;;;5092503;28;20384;-71
2022/09/28 09:34:16;;;;;;;;;;;17.80;99.90;;;;;;5112096;28;20036;-71
2022/09/28 09:37:00;;;;;;;;;;;17.70;99.90;;;;;;5086153;28;19935;-69
2022/09/28 09:39:36;;;;;;;;;;;17.70;99.90;;;;;;5092553;28;20337;-70
2022/09/28 09:42:29;;;;;;;;;;;17.60;99.90;;;;;;5099998;28;19920;-69
2022/09/28 09:44:56;;;;;;;;;;;17.70;99.90;;;;;;5089432;28;19916;-71
2022/09/28 09:47:30;;;;;;;;;;;17.60;99.90;;;;;;5090904;28;19923;-70
2022/09/28 09:49:57;;;;;;;;;;;17.60;99.90;;;;;;5091325;28;19908;-71
2022/09/28 09:52:27;;;;;;;;;;;17.50;99.90;;;;;;5102628;28;19908;-69
2022/09/28 09:55:24;;;;;;;;;;;17.50;99.90;;;;;;5111729;28;19931;-69
2022/09/28 09:57:53;;;;;;;;;;;17.50;99.90;;;;;;5076528;28;20260;-69
2022/09/28 10:00:21;;;;;;;;;;;17.50;99.90;;;;;;5091166;28;19968;-70
2022/09/28 10:02:48;;;;;;;;;;;17.50;99.90;;;;;;5105982;28;19928;-70
2022/09/28 10:05:14;;;;;;;;;;;17.50;99.90;;;;;;5093840;28;19908;-69
2022/09/28 10:07:47;;;;;;;;;;;17.50;99.90;;;;;;5096837;28;19943;-69
2022/09/28 10:10:22;;;;;;;;;;;17.60;99.90;;;;;;5072942;28;20317;-70
2022/09/28 10:12:50;;;;;;;;;;;17.60;99.90;;;;;;5105709;28;19915;-70
2022/09/28 10:15:19;;;;;;;;;;;17.60;99.90;;;;;;5111361;28;19908;-69
2022/09/28 10:17:46;;;;;;;;;;;17.60;99.90;;;;;;5111398;28;20275;-69
2022/09/28 10:20:14;;;;;;;;;;;17.60;99.90;;;;;;5092834;28;19991;-70
2022/09/28 10:22:43;;;;;;;;;;;17.60;99.90;;;;;;5108127;28;20014;-69
2022/09/28 10:25:11;;;;;;;;;;;17.50;99.90;;;;;;5091207;28;19919;-69
2022/09/28 10:27:40;;;;;;;;;;;17.40;99.90;;;;;;5090835;28;20489;-71
2022/09/28 10:30:07;;;;;;;;;;;17.30;99.90;;;;;;5098802;28;19911;-70
2022/09/28 10:32:37;;;;;;;;;;;17.20;99.90;;;;;;5110965;28;20000;-70
2022/09/28 10:35:13;;;;;;;;;;;17.20;99.90;;;;;;5111363;28;20044;-71
2022/09/28 10:38:06;;;;;;;;;;;17.20;99.90;;;;;;5096655;28;19908;-70
2022/09/28 10:41:02;;;;;;;;;;;17.00;99.90;;;;;;5088288;28;20315;-69
2022/09/28 10:43:33;;;;;;;;;;;16.80;99.90;;;;;;5078720;28;19951;-70
2022/09/28 10:46:00;;;;;;;;;;;16.80;99.90;;;;;;5090776;28;19913;-68
2022/09/28 10:48:28;;;;;;;;;;;16.70;99.90;;;;;;5073001;28;19908;-69
2022/09/28 10:50:59;;;;;;;;;;;16.70;99.90;;;;;;5090780;28;20356;-70
2022/09/28 10:53:26;;;;;;;;;;;16.50;99.90;;;;;;5090469;28;19919;-69
2022/09/28 10:56:00;;;;;;;;;;;16.50;99.90;;;;;;5072268;28;19908;-69
2022/09/28 10:58:40;;;;;;;;;;;16.50;99.90;;;;;;5090948;28;20276;-69
2022/09/28 11:01:10;;;;;;;;;;;16.40;99.90;;;;;;5091247;28;19920;-67
2022/09/28 11:03:41;;;;;;;;;;;16.40;99.90;;;;;;5110541;28;19935;-70
2022/09/28 11:06:08;;;;;;;;;;;16.30;99.90;;;;;;5109703;28;19915;-70
2022/09/28 11:08:38;;;;;;;;;;;16.30;99.90;;;;;;5090728;28;19908;-70
2022/09/28 11:11:08;;;;;;;;;;;16.20;99.90;;;;;;5091223;28;20001;-71
2022/09/28 11:13:42;;;;;;;;;;;16.20;99.90;;;;;;5108567;28;19912;-70
2022/09/28 11:16:25;;;;;;;;;;;16.20;99.90;;;;;;5091469;28;19984;-71
2022/09/28 11:18:52;;;;;;;;;;;16.20;99.90;;;;;;5109515;28;19912;-70
2022/09/28 11:21:24;;;;;;;;;;;16.10;99.90;;;;;;5106879;28;21006;-70
2022/09/28 11:23:56;;;;;;;;;;;16.10;99.90;;;;;;5109050;28;19919;-70
2022/09/28 11:26:23;;;;;;;;;;;16.10;99.90;;;;;;5108005;28;20372;-69
2022/09/28 11:28:51;;;;;;;;;;;16.10;99.90;;;;;;5112951;28;19908;-71
2022/09/28 11:31:24;;;;;;;;;;;16.00;99.90;;;;;;5110091;28;19958;-70
2022/09/28 11:34:00;;;;;;;;;;;16.10;99.90;;;;;;5094941;28;19920;-69
2022/09/28 11:36:37;;;;;;;;;;;16.00;99.90;;;;;;5097600;28;19919;-70
2022/09/28 11:39:10;;;;;;;;;;;15.90;99.90;;;;;;5114178;28;19922;-70
2022/09/28 11:41:37;;;;;;;;;;;15.90;99.90;;;;;;5112237;28;20006;-69
2022/09/28 11:44:17;;;;;;;;;;;15.90;99.90;;;;;;5113230;28;19911;-72
2022/09/28 11:46:53;;;;;;;;;;;15.90;99.90;;;;;;5100203;28;20355;-70
2022/09/28 11:49:20;;;;;;;;;;;15.90;99.90;;;;;;5114083;28;19974;-71
2022/09/28 11:51:48;;;;;;;;;;;15.90;99.90;;;;;;5114136;28;19960;-71
2022/09/28 11:54:32;;;;;;;;;;;15.90;99.90;;;;;;5114126;28;19948;-70
2022/09/28 11:57:02;;;;;;;;;;;15.90;99.90;;;;;;5113582;28;20283;-70
2022/09/28 11:59:47;;;;;;;;;;;15.90;99.90;;;;;;5114090;28;19950;-70
2022/09/28 12:02:14;;;;;;;;;;;15.90;99.90;;;;;;5113335;28;19919;-70
2022/09/28 12:04:46;;;;;;;;;;;15.90;99.90;;;;;;5112398;28;20329;-70
2022/09/28 12:07:12;;;;;;;;;;;15.90;99.90;;;;;;5113829;28;20276;-70
2022/09/28 12:09:48;;;;;;;;;;;15.80;99.90;;;;;;5093583;28;20003;-70
2022/09/28 12:12:21;;;;;;;;;;;15.80;99.90;;;;;;5105870;28;19912;-72
2022/09/28 12:14:50;;;;;;;;;;;15.80;99.90;;;;;;5090925;28;19912;-72
2022/09/28 12:17:23;;;;;;;;;;;15.80;99.90;;;;;;5091632;28;20000;-71
2022/09/28 12:20:02;;;;;;;;;;;15.80;99.90;;;;;;5091683;28;19908;-71
2022/09/28 12:22:36;;;;;;;;;;;15.80;99.90;;;;;;5107281;28;19919;-71
2022/09/28 12:25:04;;;;;;;;;;;15.80;99.90;;;;;;5111607;28;19908;-69
2022/09/28 12:27:41;;;;;;;;;;;15.80;99.90;;;;;;5113757;28;19911;-70
2022/09/28 12:30:21;;;;;;;;;;;15.80;99.90;;;;;;5113698;28;20371;-72
2022/09/28 12:32:55;;;;;;;;;;;15.80;99.90;;;;;;5110481;28;20395;-69
2022/09/28 12:35:34;;;;;;;;;;;15.70;99.90;;;;;;5113453;28;20303;-70
2022/09/28 12:38:10;;;;;;;;;;;15.70;99.90;;;;;;5109409;28;19970;-72
2022/09/28 12:40:45;;;;;;;;;;;15.70;99.90;;;;;;5093381;28;19916;-70
2022/09/28 12:43:34;;;;;;;;;;;15.70;99.90;;;;;;5092859;28;19956;-71
2022/09/28 12:46:12;;;;;;;;;;;15.70;99.90;;;;;;5092871;28;19912;-71
2022/09/28 12:48:42;;;;;;;;;;;15.70;99.90;;;;;;5092875;28;20105;-71
2022/09/28 12:51:24;;;;;;;;;;;15.60;99.90;;;;;;5093029;28;19923;-70
2022/09/28 12:54:09;;;;;;;;;;;15.60;99.90;;;;;;5092839;28;19958;-72
2022/09/28 12:56:52;;;;;;;;;;;15.60;99.90;;;;;;5092930;28;19908;-71
2022/09/28 12:59:28;;;;;;;;;;;15.60;99.90;;;;;;5092743;28;19908;-71
2022/09/28 13:02:13;;;;;;;;;;;15.60;99.90;;;;;;5092659;28;19943;-70
2022/09/28 13:04:40;;;;;;;;;;;15.70;99.90;;;;;;5092861;28;19995;-71
2022/09/28 13:07:10;;;;;;;;;;;15.70;99.90;;;;;;5074620;28;20280;-72
2022/09/28 13:09:46;;;;;;;;;;;15.60;99.90;;;;;;5092685;28;19912;-71
2022/09/28 13:12:18;;;;;;;;;;;15.60;99.90;;;;;;5092428;28;19915;-70
2022/09/28 13:15:03;;;;;;;;;;;15.70;99.90;;;;;;5092606;28;19919;-71
2022/09/28 13:17:32;;;;;;;;;;;15.60;99.90;;;;;;5092763;28;19908;-70
2022/09/28 13:20:06;;;;;;;;;;;15.70;99.90;;;;;;5092688;28;20315;-71
2022/09/28 13:22:35;;;;;;;;;;;15.70;99.90;;;;;;5092548;28;20283;-70
2022/09/28 13:25:05;;;;;;;;;;;15.70;99.90;;;;;;5092690;28;19940;-71
2022/09/28 13:27:39;;;;;;;;;;;15.70;99.90;;;;;;5092710;28;19919;-70
2022/09/28 13:30:06;;;;;;;;;;;15.70;99.90;;;;;;5092243;28;19995;-70
2022/09/28 13:32:34;;;;;;;;;;;15.60;99.90;;;;;;5091830;28;20006;-71
2022/09/28 13:35:01;;;;;;;;;;;15.50;99.90;;;;;;5092594;28;19921;-71
2022/09/28 13:37:28;;;;;;;;;;;15.60;99.90;;;;;;5092158;28;19944;-70
2022/09/28 13:39:58;;;;;;;;;;;15.60;99.90;;;;;;5092262;28;19912;-70
2022/09/28 13:42:25;;;;;;;;;;;15.60;99.90;;;;;;5098809;28;20007;-70
2022/09/28 13:45:14;;;;;;;;;;;15.50;99.90;;;;;;5112091;28;19956;-70
2022/09/28 13:47:41;;;;;;;;;;;15.60;99.90;;;;;;5103846;28;19995;-72
2022/09/28 13:50:25;;;;;;;;;;;15.60;99.90;;;;;;5112391;28;20287;-72
2022/09/28 13:52:58;;;;;;;;;;;15.60;99.90;;;;;;5107804;28;19908;-70
2022/09/28 13:55:31;;;;;;;;;;;15.60;99.90;;;;;;5091733;28;19948;-70
2022/09/28 13:58:13;;;;;;;;;;;15.60;99.90;;;;;;5091797;28;20000;-72
2022/09/28 14:00:44;;;;;;;;;;;15.50;99.90;;;;;;5092029;28;19927;-70
2022/09/28 14:03:24;;;;;;;;;;;15.60;99.90;;;;;;5091833;28;19920;-71
2022/09/28 14:06:03;;;;;;;;;;;15.50;99.90;;;;;;5092016;28;20383;-71
2022/09/28 14:08:33;;;;;;;;;;;15.50;99.90;;;;;;5092440;28;19908;-71
2022/09/28 14:11:18;;;;;;;;;;;15.40;99.90;;;;;;5091775;28;19908;-71
2022/09/28 14:14:05;;;;;;;;;;;15.40;99.90;;;;;;5091538;28;19964;-72
2022/09/28 14:16:32;;;;;;;;;;;15.40;99.90;;;;;;5091275;28;19908;-71
2022/09/28 14:19:06;;;;;;;;;;;15.40;99.90;;;;;;5091808;28;19962;-71
2022/09/28 14:21:38;;;;;;;;;;;15.40;99.90;;;;;;5091805;28;20285;-71
2022/09/28 14:24:12;;;;;;;;;;;15.40;99.90;;;;;;5091598;28;20376;-71
2022/09/28 14:26:57;;;;;;;;;;;15.40;99.90;;;;;;5091891;28;19955;-71
2022/09/28 14:29:31;;;;;;;;;;;15.50;99.90;;;;;;5091648;28;20276;-72
2022/09/28 14:32:03;;;;;;;;;;;15.50;99.90;;;;;;5096230;28;19994;-71
2022/09/28 14:34:30;;;;;;;;;;;15.40;99.90;;;;;;5112025;28;20380;-71
2022/09/28 14:42:28;;;;;;;;;;;15.50;99.90;;;;;;5111636;28;19947;-71
2022/09/28 14:45:06;;;;;;;;;;;15.50;99.90;;;;;;5111989;28;20016;-71
2022/09/28 14:47:33;;;;;;;;;;;15.50;99.90;;;;;;5111963;28;19915;-71
2022/09/28 14:50:01;;;;;;;;;;;15.40;99.90;;;;;;5111960;28;19908;-72
2022/09/28 14:52:45;;;;;;;;;;;15.40;99.90;;;;;;5111074;28;19923;-70
2022/09/28 14:55:14;;;;;;;;;;;15.40;99.90;;;;;;5111352;28;19907;-70
2022/09/28 14:57:41;;;;;;;;;;;15.40;99.90;;;;;;5093520;28;19914;-72